Time,TemperatureF,DewpointF,PressureIn,WindDirection,WindDirectionDegrees,WindSpeedMPH,WindSpeedGustMPH,Humidity,HourlyPrecipIn,Conditions,Clouds,dailyrainin,SolarRadiationWatts/m^2,SoftwareType,DateUTC
2013-04-13 00:04:00,49.0,46.2,29.90,SSW,192,5.0,5.0,90,0.00,,,0.00,0,Wunderground v.1.15,2013-04-13 07:04:00,
2013-04-13 00:10:00,49.1,46.3,29.90,SSW,196,3.0,3.0,90,0.00,,,0.00,0,Wunderground v.1.15,2013-04-13 07:10:00,
2013-04-13 00:20:00,49.4,46.6,29.90,SSW,192,4.0,4.0,90,0.00,,,0.00,0,Wunderground v.1.15,2013-04-13 07:20:00,
2013-04-13 00:30:00,49.1,46.3,29.90,South,188,3.0,3.0,90,0.00,,,0.00,0,Wunderground v.1.15,2013-04-13 07:30:00,
2013-04-13 00:35:00,49.0,46.2,29.90,SSW,198,2.0,3.0,90,0.00,,,0.00,0,Wunderground v.1.15,2013-04-13 07:35:00,
2013-04-13 00:44:00,49.0,46.2,29.91,SW,217,1.0,2.0,90,0.00,,,0.00,0,Wunderground v.1.15,2013-04-13 07:44:00,
2013-04-13 00:49:00,49.1,46.3,29.91,WNW,302,2.0,2.0,90,0.00,,,0.00,0,Wunderground v.1.15,2013-04-13 07:49:00,
2013-04-13 01:00:00,49.2,46.4,29.91,North,0,0.0,0.0,90,0.00,,,0.00,0,Wunderground v.1.15,2013-04-13 08:00:00,
2013-04-13 01:09:00,49.0,46.2,29.91,North,0,0.0,0.0,90,0.00,,,0.00,0,Wunderground v.1.15,2013-04-13 08:09:00,
2013-04-13 01:15:00,48.8,46.0,29.91,North,0,0.0,0.0,90,0.00,,,0.00,0,Wunderground v.1.15,2013-04-13 08:15:00,
2013-04-13 01:20:00,48.6,45.8,29.91,North,0,0.0,0.0,90,0.00,,,0.00,0,Wunderground v.1.15,2013-04-13 08:20:00,
2013-04-13 01:30:00,48.3,45.8,29.90,North,0,0.0,0.0,91,0.00,,,0.00,0,Wunderground v.1.15,2013-04-13 08:30:00,
2013-04-13 01:35:00,48.2,45.4,29.90,North,0,0.0,0.0,90,0.00,,,0.00,0,Wunderground v.1.15,2013-04-13 08:35:00,
2013-04-13 01:44:00,48.2,46.3,29.90,South,191,2.0,2.0,93,0.00,,,0.00,0,Wunderground v.1.15,2013-04-13 08:44:00,
2013-04-13 01:49:00,48.1,46.2,29.89,SW,218,1.0,1.0,93,0.00,,,0.00,0,Wunderground v.1.15,2013-04-13 08:49:00,
2013-04-13 02:00:00,48.0,46.1,29.89,SSW,209,0.0,0.0,93,0.00,,,0.00,0,Wunderground v.1.15,2013-04-13 09:00:00,
2013-04-13 02:15:00,48.0,46.4,29.89,SE,124,0.0,0.0,94,0.00,,,0.00,0,Wunderground v.1.15,2013-04-13 09:15:00,
2013-04-13 02:20:00,48.1,46.5,29.89,SE,124,0.0,0.0,94,0.00,,,0.00,0,Wunderground v.1.15,2013-04-13 09:20:00,
2013-04-13 02:30:00,47.8,46.2,29.89,SE,124,0.0,0.0,94,0.00,,,0.00,0,Wunderground v.1.15,2013-04-13 09:30:00,
2013-04-13 02:39:00,47.5,45.9,29.88,SE,124,0.0,0.0,94,0.00,,,0.00,0,Wunderground v.1.15,2013-04-13 09:39:00,
2013-04-13 02:50:00,47.1,45.7,29.88,SE,124,0.0,0.0,95,0.00,,,0.00,0,Wunderground v.1.15,2013-04-13 09:50:00,
2013-04-13 02:55:00,47.0,45.4,29.88,SE,124,0.0,0.0,94,0.00,,,0.00,0,Wunderground v.1.15,2013-04-13 09:55:00,
2013-04-13 03:00:00,47.0,45.6,29.87,SE,124,0.0,0.0,95,0.00,,,0.00,0,Wunderground v.1.15,2013-04-13 10:00:00,
2013-04-13 03:09:00,47.0,45.4,29.86,SE,124,0.0,0.0,94,0.00,,,0.00,0,Wunderground v.1.15,2013-04-13 10:09:00,
2013-04-13 03:15:00,47.0,45.6,29.86,SE,124,0.0,0.0,95,0.00,,,0.00,0,Wunderground v.1.15,2013-04-13 10:15:00,
2013-04-13 03:20:00,47.2,45.8,29.87,North,11,3.0,3.0,95,0.00,,,0.00,0,Wunderground v.1.15,2013-04-13 10:20:00,
2013-04-13 03:25:00,47.6,46.2,29.87,North,4,3.0,3.0,95,0.00,,,0.00,0,Wunderground v.1.15,2013-04-13 10:25:00,
2013-04-13 03:30:00,47.9,46.5,29.86,North,0,2.0,2.0,95,0.00,,,0.00,0,Wunderground v.1.15,2013-04-13 10:30:00,
2013-04-13 03:40:00,47.8,46.4,29.86,NNW,331,2.0,2.0,95,0.00,,,0.00,0,Wunderground v.1.15,2013-04-13 10:40:00,
2013-04-13 03:50:00,47.6,46.2,29.87,NNW,337,0.0,0.0,95,0.00,,,0.00,0,Wunderground v.1.15,2013-04-13 10:50:00,
2013-04-13 03:59:00,47.5,46.4,29.87,NNW,337,0.0,0.0,96,0.00,,,0.00,0,Wunderground v.1.15,2013-04-13 10:59:00,
2013-04-13 04:04:00,47.4,46.3,29.87,NNW,337,0.0,0.0,96,0.00,,,0.00,0,Wunderground v.1.15,2013-04-13 11:04:00,
2013-04-13 04:10:00,47.3,46.2,29.87,NNW,337,0.0,0.0,96,0.00,,,0.00,0,Wunderground v.1.15,2013-04-13 11:10:00,
2013-04-13 04:19:00,46.9,45.8,29.87,NNW,337,0.0,0.0,96,0.00,,,0.00,0,Wunderground v.1.15,2013-04-13 11:19:00,
2013-04-13 04:29:00,46.6,45.5,29.87,NNW,337,1.0,1.0,96,0.00,,,0.00,0,Wunderground v.1.15,2013-04-13 11:29:00,
2013-04-13 04:35:00,46.5,45.1,29.86,NNW,337,0.0,1.0,95,0.00,,,0.00,0,Wunderground v.1.15,2013-04-13 11:35:00,
2013-04-13 04:40:00,46.5,44.9,29.86,NNW,337,0.0,0.0,94,0.00,,,0.00,0,Wunderground v.1.15,2013-04-13 11:40:00,
2013-04-13 04:49:00,46.4,44.8,29.87,NNW,337,1.0,1.0,94,0.00,,,0.00,0,Wunderground v.1.15,2013-04-13 11:49:00,
2013-04-13 04:59:00,46.5,44.6,29.86,NNW,337,1.0,1.0,93,0.00,,,0.00,0,Wunderground v.1.15,2013-04-13 11:59:00,
2013-04-13 05:05:00,46.3,44.4,29.86,NNW,337,0.0,1.0,93,0.00,,,0.00,0,Wunderground v.1.15,2013-04-13 12:05:00,
2013-04-13 05:10:00,46.3,44.4,29.86,NNW,337,0.0,0.0,93,0.00,,,0.00,0,Wunderground v.1.15,2013-04-13 12:10:00,
2013-04-13 05:15:00,46.3,44.4,29.87,NNW,337,2.0,2.0,93,0.00,,,0.00,0,Wunderground v.1.15,2013-04-13 12:15:00,
2013-04-13 05:20:00,46.5,44.6,29.87,NNW,337,2.0,2.0,93,0.00,,,0.00,0,Wunderground v.1.15,2013-04-13 12:20:00,
2013-04-13 05:29:00,46.7,44.8,29.87,North,0,1.0,1.0,93,0.00,,,0.00,0,Wunderground v.1.15,2013-04-13 12:29:00,
2013-04-13 05:34:00,46.8,44.9,29.87,North,0,1.0,1.0,93,0.00,,,0.00,0,Wunderground v.1.15,2013-04-13 12:34:00,
2013-04-13 05:39:00,46.9,45.0,29.87,North,0,2.0,2.0,93,0.00,,,0.00,0,Wunderground v.1.15,2013-04-13 12:39:00,
2013-04-13 05:50:00,46.9,45.0,29.87,North,0,0.0,0.0,93,0.00,,,0.00,0,Wunderground v.1.15,2013-04-13 12:50:00,
2013-04-13 05:55:00,46.8,44.9,29.86,North,0,0.0,0.0,93,0.00,,,0.00,0,Wunderground v.1.15,2013-04-13 12:55:00,
2013-04-13 06:00:00,46.6,44.7,29.86,North,0,0.0,0.0,93,0.00,,,0.00,0,Wunderground v.1.15,2013-04-13 13:00:00,
2013-04-13 06:09:00,46.3,44.4,29.87,North,0,0.0,0.0,93,0.00,,,0.00,0,Wunderground v.1.15,2013-04-13 13:09:00,
2013-04-13 06:15:00,46.2,44.3,29.87,North,0,0.0,0.0,93,0.00,,,0.00,0,Wunderground v.1.15,2013-04-13 13:15:00,
2013-04-13 06:20:00,46.1,44.2,29.87,North,0,0.0,0.0,93,0.00,,,0.00,0,Wunderground v.1.15,2013-04-13 13:20:00,
2013-04-13 06:30:00,45.9,44.5,29.88,North,0,0.0,0.0,95,0.00,,,0.00,0,Wunderground v.1.15,2013-04-13 13:30:00,
2013-04-13 06:39:00,45.9,44.8,29.88,North,0,0.0,0.0,96,0.00,,,0.00,0,Wunderground v.1.15,2013-04-13 13:39:00,
2013-04-13 06:44:00,46.0,44.9,29.88,North,0,0.0,0.0,96,0.00,,,0.00,0,Wunderground v.1.15,2013-04-13 13:44:00,
2013-04-13 06:49:00,46.1,45.0,29.88,North,0,0.0,0.0,96,0.00,,,0.00,0,Wunderground v.1.15,2013-04-13 13:49:00,
2013-04-13 06:54:00,46.2,45.1,29.88,North,0,0.0,0.0,96,0.00,,,0.00,0,Wunderground v.1.15,2013-04-13 13:54:00,
2013-04-13 07:00:00,46.2,45.1,29.88,North,0,0.0,0.0,96,0.00,,,0.00,0,Wunderground v.1.15,2013-04-13 14:00:00,
2013-04-13 07:09:00,46.2,45.1,29.88,North,0,0.0,0.0,96,0.00,,,0.00,0,Wunderground v.1.15,2013-04-13 14:09:00,
2013-04-13 07:14:00,46.3,45.2,29.88,North,0,1.0,1.0,96,0.00,,,0.00,0,Wunderground v.1.15,2013-04-13 14:14:00,
2013-04-13 07:19:00,46.5,45.7,29.88,North,0,0.0,0.0,97,0.00,,,0.00,0,Wunderground v.1.15,2013-04-13 14:19:00,
2013-04-13 07:25:00,46.7,45.9,29.87,SW,216,0.0,0.0,97,0.00,,,0.00,0,Wunderground v.1.15,2013-04-13 14:25:00,
2013-04-13 07:30:00,46.8,46.0,29.89,SSW,199,0.0,0.0,97,0.00,,,0.00,0,Wunderground v.1.15,2013-04-13 14:30:00,
2013-04-13 07:39:00,47.1,46.3,29.90,NNW,340,3.0,3.0,97,0.00,,,0.00,0,Wunderground v.1.15,2013-04-13 14:39:00,
2013-04-13 07:45:00,47.5,46.7,29.90,NE,42,2.0,3.0,97,0.00,,,0.00,0,Wunderground v.1.15,2013-04-13 14:45:00,
2013-04-13 07:50:00,47.6,46.5,29.90,North,0,1.0,1.0,96,0.00,,,0.00,0,Wunderground v.1.15,2013-04-13 14:50:00,
2013-04-13 08:05:00,48.4,47.3,29.90,North,0,0.0,0.0,96,0.00,,,0.00,0,Wunderground v.1.15,2013-04-13 15:05:00,
2013-04-13 08:15:00,49.2,47.8,29.90,North,0,0.0,0.0,95,0.00,,,0.00,0,Wunderground v.1.15,2013-04-13 15:15:00,
2013-04-13 08:24:00,49.9,48.2,29.90,North,0,0.0,0.0,94,0.00,,,0.00,0,Wunderground v.1.15,2013-04-13 15:24:00,
2013-04-13 08:29:00,50.4,48.5,29.90,North,0,0.0,0.0,93,0.00,,,0.00,0,Wunderground v.1.15,2013-04-13 15:29:00,
2013-04-13 08:34:00,50.8,48.6,29.90,North,0,0.0,0.0,92,0.00,,,0.00,0,Wunderground v.1.15,2013-04-13 15:34:00,
2013-04-13 08:40:00,51.3,49.1,29.90,North,0,0.0,0.0,92,0.00,,,0.00,0,Wunderground v.1.15,2013-04-13 15:40:00,
2013-04-13 08:49:00,52.3,49.5,29.90,NW,321,0.0,0.0,90,0.00,,,0.00,0,Wunderground v.1.15,2013-04-13 15:49:00,
2013-04-13 08:54:00,52.8,49.6,29.90,NNW,344,1.0,1.0,89,0.00,,,0.00,0,Wunderground v.1.15,2013-04-13 15:54:00,
2013-04-13 08:59:00,53.0,49.2,29.90,NNW,344,0.0,0.0,87,0.00,,,0.00,0,Wunderground v.1.15,2013-04-13 15:59:00,
2013-04-13 09:05:00,53.3,49.5,29.90,NNW,344,0.0,0.0,87,0.00,,,0.00,0,Wunderground v.1.15,2013-04-13 16:05:00,
2013-04-13 09:10:00,54.1,50.0,29.90,NNW,341,2.0,2.0,86,0.00,,,0.00,0,Wunderground v.1.15,2013-04-13 16:10:00,
2013-04-13 09:19:00,54.4,49.7,29.91,NNW,340,4.0,4.0,84,0.00,,,0.00,0,Wunderground v.1.15,2013-04-13 16:19:00,
2013-04-13 09:24:00,54.6,49.5,29.91,NNW,335,2.0,4.0,83,0.00,,,0.00,0,Wunderground v.1.15,2013-04-13 16:24:00,
2013-04-13 09:29:00,54.6,49.2,29.91,NW,325,3.0,3.0,82,0.00,,,0.00,0,Wunderground v.1.15,2013-04-13 16:29:00,
2013-04-13 09:35:00,54.9,49.5,29.91,NW,320,0.0,3.0,82,0.00,,,0.00,0,Wunderground v.1.15,2013-04-13 16:35:00,
2013-04-13 09:40:00,55.5,49.8,29.91,NW,316,1.0,1.0,81,0.00,,,0.00,0,Wunderground v.1.15,2013-04-13 16:40:00,
2013-04-13 09:49:00,57.2,50.1,29.92,WNW,291,2.0,2.0,77,0.00,,,0.00,0,Wunderground v.1.15,2013-04-13 16:49:00,
2013-04-13 09:54:00,57.6,49.7,29.91,SSE,165,1.0,2.0,75,0.00,,,0.00,0,Wunderground v.1.15,2013-04-13 16:54:00,
2013-04-13 10:04:00,58.7,50.8,29.91,SSW,197,2.0,2.0,75,0.00,,,0.00,0,Wunderground v.1.15,2013-04-13 17:04:00,
2013-04-13 10:09:00,59.2,50.5,29.90,SSW,213,2.0,2.0,73,0.00,,,0.00,0,Wunderground v.1.15,2013-04-13 17:09:00,
2013-04-13 10:14:00,59.3,50.3,29.90,South,178,5.0,5.0,72,0.00,,,0.00,0,Wunderground v.1.15,2013-04-13 17:14:00,
2013-04-13 10:20:00,59.6,50.2,29.90,SSW,210,1.0,1.0,71,0.00,,,0.00,0,Wunderground v.1.15,2013-04-13 17:20:00,
2013-04-13 10:30:00,59.9,50.8,29.90,South,189,5.0,5.0,72,0.00,,,0.00,0,Wunderground v.1.15,2013-04-13 17:30:00,
2013-04-13 10:35:00,60.2,50.8,29.89,South,172,0.0,5.0,71,0.00,,,0.00,0,Wunderground v.1.15,2013-04-13 17:35:00,
2013-04-13 10:50:00,62.3,51.6,29.90,SSW,204,1.0,1.0,68,0.00,,,0.00,0,Wunderground v.1.15,2013-04-13 17:50:00,
2013-04-13 11:04:00,63.1,51.6,29.90,SSW,199,2.0,2.0,66,0.00,,,0.00,0,Wunderground v.1.15,2013-04-13 18:04:00,
2013-04-13 11:09:00,62.9,51.4,29.89,SSW,194,0.0,0.0,66,0.00,,,0.00,0,Wunderground v.1.15,2013-04-13 18:09:00,
2013-04-13 11:15:00,63.3,51.7,29.90,SSW,206,1.0,1.0,66,0.00,,,0.00,0,Wunderground v.1.15,2013-04-13 18:15:00,
2013-04-13 11:20:00,63.7,52.1,29.90,NW,308,1.0,1.0,66,0.00,,,0.00,0,Wunderground v.1.15,2013-04-13 18:20:00,
2013-04-13 11:29:00,64.7,49.1,29.90,SSW,208,2.0,2.0,57,0.00,,,0.00,0,Wunderground v.1.15,2013-04-13 18:29:00,
2013-04-13 11:35:00,64.3,49.7,29.89,SSW,205,4.0,4.0,59,0.00,,,0.00,0,Wunderground v.1.15,2013-04-13 18:35:00,
2013-04-13 11:40:00,64.7,50.0,29.89,SSW,195,3.0,3.0,59,0.00,,,0.00,0,Wunderground v.1.15,2013-04-13 18:40:00,
2013-04-13 11:50:00,65.9,53.4,29.89,SSW,193,1.0,1.0,64,0.00,,,0.00,0,Wunderground v.1.15,2013-04-13 18:50:00,
2013-04-13 11:59:00,66.1,51.8,29.88,SSW,210,1.0,1.0,60,0.00,,,0.00,0,Wunderground v.1.15,2013-04-13 18:59:00,
2013-04-13 12:05:00,66.3,52.4,29.88,West,281,1.0,1.0,61,0.00,,,0.00,0,Wunderground v.1.15,2013-04-13 19:05:00,
2013-04-13 12:10:00,66.4,52.1,29.88,SSW,211,3.0,3.0,60,0.00,,,0.00,0,Wunderground v.1.15,2013-04-13 19:10:00,
2013-04-13 12:19:00,66.8,51.5,29.88,SSW,193,1.0,1.0,58,0.00,,,0.00,0,Wunderground v.1.15,2013-04-13 19:19:00,
2013-04-13 12:24:00,66.9,49.2,29.88,SW,222,1.0,1.0,53,0.00,,,0.00,0,Wunderground v.1.15,2013-04-13 19:24:00,
2013-04-13 12:29:00,66.9,51.2,29.88,West,269,0.0,0.0,57,0.00,,,0.00,0,Wunderground v.1.15,2013-04-13 19:29:00,
2013-04-13 12:35:00,67.3,54.3,29.88,SSW,203,3.0,3.0,63,0.00,,,0.00,0,Wunderground v.1.15,2013-04-13 19:35:00,
2013-04-13 12:40:00,67.8,50.0,29.88,NW,326,2.0,2.0,53,0.00,,,0.00,0,Wunderground v.1.15,2013-04-13 19:40:00,
2013-04-13 12:50:00,65.9,52.5,29.87,SSW,194,2.0,2.0,62,0.00,,,0.00,0,Wunderground v.1.15,2013-04-13 19:50:00,
2013-04-13 12:55:00,67.1,53.6,29.87,SSW,212,5.0,5.0,62,0.00,,,0.00,0,Wunderground v.1.15,2013-04-13 19:55:00,
2013-04-13 13:05:00,66.6,53.6,29.87,SW,215,0.0,3.0,63,0.00,,,0.00,0,Wunderground v.1.15,2013-04-13 20:05:00,
2013-04-13 13:10:00,66.8,53.4,29.86,SW,225,2.0,2.0,62,0.00,,,0.00,0,Wunderground v.1.15,2013-04-13 20:10:00,
2013-04-13 13:19:00,66.3,53.8,29.86,WSW,238,2.0,2.0,64,0.00,,,0.00,0,Wunderground v.1.15,2013-04-13 20:19:00,
2013-04-13 13:24:00,66.3,53.8,29.86,SSW,209,6.0,6.0,64,0.00,,,0.00,0,Wunderground v.1.15,2013-04-13 20:24:00,
2013-04-13 13:30:00,66.2,53.2,29.86,SW,225,4.0,4.0,63,0.00,,,0.00,0,Wunderground v.1.15,2013-04-13 20:30:00,
2013-04-13 13:35:00,65.7,53.2,29.86,SSW,211,6.0,6.0,64,0.00,,,0.00,0,Wunderground v.1.15,2013-04-13 20:35:00,
2013-04-13 13:44:00,66.1,53.6,29.86,SSW,208,3.0,3.0,64,0.00,,,0.00,0,Wunderground v.1.15,2013-04-13 20:44:00,
2013-04-13 13:49:00,66.1,53.6,29.86,SSW,198,0.0,0.0,64,0.00,,,0.00,0,Wunderground v.1.15,2013-04-13 20:49:00,
2013-04-13 13:55:00,66.2,53.2,29.86,SW,215,3.0,3.0,63,0.00,,,0.00,0,Wunderground v.1.15,2013-04-13 20:55:00,
2013-04-13 14:00:00,65.6,52.7,29.85,SW,222,7.0,7.0,63,0.00,,,0.00,0,Wunderground v.1.15,2013-04-13 21:00:00,
2013-04-13 14:09:00,65.4,52.9,29.85,SSW,211,5.0,5.0,64,0.00,,,0.00,0,Wunderground v.1.15,2013-04-13 21:09:00,
2013-04-13 14:15:00,64.7,53.1,29.85,SW,219,1.0,5.0,66,0.00,,,0.00,0,Wunderground v.1.15,2013-04-13 21:15:00,
2013-04-13 14:24:00,64.4,52.0,29.85,SSW,208,6.0,6.0,64,0.00,,,0.00,0,Wunderground v.1.15,2013-04-13 21:24:00,
2013-04-13 14:30:00,64.2,51.3,29.85,SSW,199,4.0,4.0,63,0.00,,,0.00,0,Wunderground v.1.15,2013-04-13 21:30:00,
2013-04-13 14:35:00,64.2,51.8,29.85,SSW,203,3.0,4.0,64,0.00,,,0.00,0,Wunderground v.1.15,2013-04-13 21:35:00,
2013-04-13 14:44:00,64.0,51.6,29.85,SW,219,5.0,5.0,64,0.00,,,0.00,0,Wunderground v.1.15,2013-04-13 21:44:00,
2013-04-13 14:49:00,63.7,51.3,29.85,SSW,213,4.0,4.0,64,0.00,,,0.00,0,Wunderground v.1.15,2013-04-13 21:49:00,
2013-04-13 14:55:00,63.8,51.4,29.85,SW,220,3.0,4.0,64,0.00,,,0.00,0,Wunderground v.1.15,2013-04-13 21:55:00,
2013-04-13 15:00:00,63.3,50.9,29.85,SSW,197,10.0,10.0,64,0.00,,,0.00,0,Wunderground v.1.15,2013-04-13 22:00:00,
2013-04-13 15:09:00,62.5,50.2,29.85,SSW,205,9.0,9.0,64,0.00,,,0.00,0,Wunderground v.1.15,2013-04-13 22:09:00,
2013-04-13 15:14:00,62.4,48.8,29.85,SW,220,5.0,9.0,61,0.00,,,0.00,0,Wunderground v.1.15,2013-04-13 22:14:00,
2013-04-13 15:19:00,62.6,47.1,29.85,SSW,201,7.0,7.0,57,0.00,,,0.00,0,Wunderground v.1.15,2013-04-13 22:19:00,
2013-04-13 15:25:00,62.3,45.9,29.85,SSW,212,3.0,7.0,55,0.00,,,0.00,0,Wunderground v.1.15,2013-04-13 22:25:00,
2013-04-13 15:30:00,61.7,44.9,29.85,SW,225,8.0,8.0,54,0.00,,,0.00,0,Wunderground v.1.15,2013-04-13 22:30:00,
2013-04-13 15:35:00,61.8,44.5,29.85,SSW,207,3.0,8.0,53,0.00,,,0.00,0,Wunderground v.1.15,2013-04-13 22:35:00,
2013-04-13 15:44:00,61.8,45.0,29.85,SSW,205,13.0,13.0,54,0.00,,,0.00,0,Wunderground v.1.15,2013-04-13 22:44:00,
2013-04-13 15:50:00,62.0,44.7,29.85,SSW,202,7.0,7.0,53,0.00,,,0.00,0,Wunderground v.1.15,2013-04-13 22:50:00,
2013-04-13 15:55:00,61.8,44.5,29.84,SSW,195,4.0,7.0,53,0.00,,,0.00,0,Wunderground v.1.15,2013-04-13 22:55:00,
2013-04-13 16:00:00,61.3,44.0,29.84,SSW,199,4.0,4.0,53,0.00,,,0.00,0,Wunderground v.1.15,2013-04-13 23:00:00,
2013-04-13 16:09:00,60.1,43.4,29.84,SW,216,7.0,7.0,54,0.00,,,0.00,0,Wunderground v.1.15,2013-04-13 23:09:00,
2013-04-13 16:15:00,59.5,45.6,29.84,SW,225,7.0,7.0,60,0.00,,,0.00,0,Wunderground v.1.15,2013-04-13 23:15:00,
2013-04-13 16:20:00,59.6,46.1,29.84,SSW,200,18.0,18.0,61,0.00,,,0.00,0,Wunderground v.1.15,2013-04-13 23:20:00,
2013-04-13 16:29:00,58.8,44.5,29.84,SSW,197,9.0,9.0,59,0.00,,,0.00,0,Wunderground v.1.15,2013-04-13 23:29:00,
2013-04-13 16:35:00,58.4,43.2,29.84,SSW,207,6.0,9.0,57,0.00,,,0.00,0,Wunderground v.1.15,2013-04-13 23:35:00,
2013-04-13 16:40:00,58.0,42.8,29.83,SSW,204,6.0,6.0,57,0.00,,,0.00,0,Wunderground v.1.15,2013-04-13 23:40:00,
2013-04-13 16:45:00,57.8,46.1,29.83,SSW,205,22.0,22.0,65,0.00,,,0.00,0,Wunderground v.1.15,2013-04-13 23:45:00,
2013-04-13 16:54:00,57.5,41.9,29.84,SSW,200,7.0,7.0,56,0.00,,,0.00,0,Wunderground v.1.15,2013-04-13 23:54:00,
2013-04-13 16:59:00,57.2,41.6,29.84,SW,223,8.0,8.0,56,0.00,,,0.00,0,Wunderground v.1.15,2013-04-13 23:59:00,
2013-04-13 17:05:00,56.8,41.3,29.84,SSW,207,6.0,8.0,56,0.00,,,0.00,0,Wunderground v.1.15,2013-04-14 00:05:00,
2013-04-13 17:14:00,56.8,40.8,29.84,SSW,207,13.0,13.0,55,0.00,,,0.00,0,Wunderground v.1.15,2013-04-14 00:14:00,
2013-04-13 17:20:00,56.7,41.2,29.84,SSW,201,8.0,8.0,56,0.00,,,0.00,0,Wunderground v.1.15,2013-04-14 00:20:00,
2013-04-13 17:25:00,56.9,41.4,29.84,SSW,213,9.0,9.0,56,0.00,,,0.00,0,Wunderground v.1.15,2013-04-14 00:25:00,
2013-04-13 17:34:00,56.4,40.9,29.84,SW,222,7.0,7.0,56,0.00,,,0.00,0,Wunderground v.1.15,2013-04-14 00:34:00,
2013-04-13 17:40:00,56.1,41.1,29.85,SSW,213,3.0,3.0,57,0.00,,,0.00,0,Wunderground v.1.15,2013-04-14 00:40:00,
2013-04-13 17:45:00,56.1,41.1,29.84,SW,218,4.0,4.0,57,0.00,,,0.00,0,Wunderground v.1.15,2013-04-14 00:45:00,
2013-04-13 17:54:00,55.6,40.6,29.85,SSW,208,6.0,6.0,57,0.00,,,0.00,0,Wunderground v.1.15,2013-04-14 00:54:00,
2013-04-13 17:59:00,55.5,43.9,29.85,SW,222,4.0,4.0,65,0.00,,,0.00,0,Wunderground v.1.15,2013-04-14 00:59:00,
2013-04-13 18:05:00,55.3,43.7,29.85,SSW,199,2.0,4.0,65,0.00,,,0.00,0,Wunderground v.1.15,2013-04-14 01:05:00,
2013-04-13 18:14:00,54.7,40.2,29.85,SSW,202,10.0,10.0,58,0.00,,,0.00,0,Wunderground v.1.15,2013-04-14 01:14:00,
2013-04-13 18:20:00,54.5,40.0,29.85,SW,215,3.0,3.0,58,0.00,,,0.00,0,Wunderground v.1.15,2013-04-14 01:20:00,
2013-04-13 18:25:00,54.3,39.8,29.85,SW,216,4.0,4.0,58,0.00,,,0.00,0,Wunderground v.1.15,2013-04-14 01:25:00,
2013-04-13 18:34:00,53.7,44.1,29.85,SSW,199,10.0,10.0,70,0.00,,,0.00,0,Wunderground v.1.15,2013-04-14 01:34:00,
2013-04-13 18:40:00,53.6,40.0,29.85,South,190,4.0,4.0,60,0.00,,,0.00,0,Wunderground v.1.15,2013-04-14 01:40:00,
2013-04-13 18:49:00,53.4,39.9,29.85,SSW,208,3.0,3.0,60,0.00,,,0.00,0,Wunderground v.1.15,2013-04-14 01:49:00,
2013-04-13 18:55:00,53.2,39.7,29.85,SSW,198,3.0,3.0,60,0.00,,,0.00,0,Wunderground v.1.15,2013-04-14 01:55:00,
2013-04-13 19:00:00,53.0,39.5,29.85,SSW,212,2.0,2.0,60,0.00,,,0.00,0,Wunderground v.1.15,2013-04-14 02:00:00,
2013-04-13 19:10:00,52.8,42.1,29.86,SW,226,0.0,0.0,67,0.00,,,0.00,0,Wunderground v.1.15,2013-04-14 02:10:00,
2013-04-13 19:19:00,52.7,43.6,29.86,North,350,2.0,2.0,71,0.00,,,0.00,0,Wunderground v.1.15,2013-04-14 02:19:00,
2013-04-13 19:25:00,52.5,43.7,29.87,South,181,5.0,5.0,72,0.00,,,0.00,0,Wunderground v.1.15,2013-04-14 02:25:00,
2013-04-13 19:30:00,52.4,44.7,29.87,WSW,240,0.0,0.0,75,0.00,,,0.00,0,Wunderground v.1.15,2013-04-14 02:30:00,
2013-04-13 19:39:00,52.0,44.3,29.86,SSW,193,4.0,4.0,75,0.00,,,0.00,0,Wunderground v.1.15,2013-04-14 02:39:00,
2013-04-13 19:49:00,51.5,44.2,29.86,SSW,206,0.0,0.0,76,0.00,,,0.00,0,Wunderground v.1.15,2013-04-14 02:49:00,
2013-04-13 19:55:00,51.3,44.3,29.86,SW,223,3.0,3.0,77,0.00,,,0.00,0,Wunderground v.1.15,2013-04-14 02:55:00,
2013-04-13 20:00:00,51.1,45.8,29.86,WSW,256,3.0,3.0,82,0.00,,,0.00,0,Wunderground v.1.15,2013-04-14 03:00:00,
2013-04-13 20:09:00,50.9,45.9,29.86,South,190,2.0,2.0,83,0.00,,,0.00,0,Wunderground v.1.15,2013-04-14 03:09:00,
2013-04-13 20:15:00,50.7,44.1,29.86,SW,222,1.0,2.0,78,0.00,,,0.00,0,Wunderground v.1.15,2013-04-14 03:15:00,
2013-04-13 20:24:00,50.4,44.1,29.87,SW,226,0.0,3.0,79,0.00,,,0.00,0,Wunderground v.1.15,2013-04-14 03:24:00,
2013-04-13 20:30:00,50.2,44.3,29.87,South,171,1.0,1.0,80,0.00,,,0.00,0,Wunderground v.1.15,2013-04-14 03:30:00,
2013-04-13 20:35:00,50.1,45.1,29.88,SSE,160,0.0,1.0,83,0.00,,,0.00,0,Wunderground v.1.15,2013-04-14 03:35:00,
2013-04-13 20:44:00,50.0,45.7,29.88,South,179,3.0,3.0,85,0.00,,,0.00,0,Wunderground v.1.15,2013-04-14 03:44:00,
2013-04-13 20:50:00,50.0,45.7,29.88,SSW,197,2.0,2.0,85,0.00,,,0.00,0,Wunderground v.1.15,2013-04-14 03:50:00,
2013-04-13 20:55:00,49.9,45.6,29.88,WSW,253,3.0,3.0,85,0.00,,,0.00,0,Wunderground v.1.15,2013-04-14 03:55:00,
2013-04-13 21:04:00,49.7,45.7,29.88,NNW,327,2.0,2.0,86,0.00,,,0.00,0,Wunderground v.1.15,2013-04-14 04:04:00,
2013-04-13 21:09:00,49.6,45.6,29.89,WNW,287,0.0,0.0,86,0.00,,,0.00,0,Wunderground v.1.15,2013-04-14 04:09:00,
2013-04-13 21:15:00,49.5,45.5,29.89,SW,214,0.0,0.0,86,0.00,,,0.00,0,Wunderground v.1.15,2013-04-14 04:15:00,
2013-04-13 21:20:00,49.3,45.3,29.89,SW,233,2.0,2.0,86,0.00,,,0.00,0,Wunderground v.1.15,2013-04-14 04:20:00,
2013-04-13 21:30:00,49.2,45.5,29.90,South,191,3.0,3.0,87,0.00,,,0.00,0,Wunderground v.1.15,2013-04-14 04:30:00,
2013-04-13 21:35:00,49.2,45.5,29.90,SSW,208,1.0,3.0,87,0.00,,,0.00,0,Wunderground v.1.15,2013-04-14 04:35:00,
2013-04-13 21:44:00,49.2,45.2,29.90,SSW,196,2.0,2.0,86,0.00,,,0.00,0,Wunderground v.1.15,2013-04-14 04:44:00,
2013-04-13 21:49:00,49.0,45.3,29.90,SSW,194,3.0,3.0,87,0.00,,,0.00,0,Wunderground v.1.15,2013-04-14 04:49:00,
2013-04-13 21:55:00,48.7,45.0,29.90,South,180,2.0,3.0,87,0.00,,,0.00,0,Wunderground v.1.15,2013-04-14 04:55:00,
2013-04-13 22:00:00,48.5,44.8,29.90,SW,221,6.0,6.0,87,0.00,,,0.00,0,Wunderground v.1.15,2013-04-14 05:00:00,
2013-04-13 22:10:00,48.2,45.4,29.90,SSW,199,5.0,5.0,90,0.00,,,0.00,0,Wunderground v.1.15,2013-04-14 05:10:00,
2013-04-13 22:15:00,48.1,45.3,29.91,SSW,202,2.0,5.0,90,0.00,,,0.00,0,Wunderground v.1.15,2013-04-14 05:15:00,
2013-04-13 22:20:00,48.1,45.0,29.90,South,183,4.0,4.0,89,0.00,,,0.00,0,Wunderground v.1.15,2013-04-14 05:20:00,
2013-04-13 22:25:00,48.0,45.2,29.90,SW,221,1.0,4.0,90,0.00,,,0.00,0,Wunderground v.1.15,2013-04-14 05:25:00,
2013-04-13 22:34:00,48.0,45.5,29.91,SSW,193,4.0,5.0,91,0.00,,,0.00,0,Wunderground v.1.15,2013-04-14 05:34:00,
2013-04-13 22:39:00,48.0,45.5,29.91,SSW,202,0.0,0.0,91,0.00,,,0.00,0,Wunderground v.1.15,2013-04-14 05:39:00,
2013-04-13 22:44:00,48.0,45.8,29.91,SSW,194,6.0,6.0,92,0.00,,,0.00,0,Wunderground v.1.15,2013-04-14 05:44:00,
2013-04-13 22:49:00,47.9,45.7,29.91,SSW,192,3.0,3.0,92,0.00,,,0.00,0,Wunderground v.1.15,2013-04-14 05:49:00,
2013-04-13 22:55:00,47.9,45.7,29.91,SSW,196,8.0,8.0,92,0.00,,,0.00,0,Wunderground v.1.15,2013-04-14 05:55:00,
2013-04-13 23:00:00,47.9,45.7,29.91,SW,214,3.0,3.0,92,0.00,,,0.00,0,Wunderground v.1.15,2013-04-14 06:00:00,
2013-04-13 23:09:00,47.9,45.7,29.91,South,171,2.0,2.0,92,0.00,,,0.00,0,Wunderground v.1.15,2013-04-14 06:09:00,
2013-04-13 23:14:00,47.8,45.6,29.91,SSW,195,3.0,3.0,92,0.00,,,0.00,0,Wunderground v.1.15,2013-04-14 06:14:00,
2013-04-13 23:20:00,47.7,45.5,29.90,SSW,198,4.0,4.0,92,0.00,,,0.00,0,Wunderground v.1.15,2013-04-14 06:20:00,
2013-04-13 23:25:00,47.6,45.4,29.90,South,179,4.0,4.0,92,0.00,,,0.00,0,Wunderground v.1.15,2013-04-14 06:25:00,
2013-04-13 23:34:00,47.4,45.5,29.90,South,176,2.0,5.0,93,0.00,,,0.00,0,Wunderground v.1.15,2013-04-14 06:34:00,
2013-04-13 23:40:00,47.4,45.2,29.90,SSW,200,3.0,3.0,92,0.00,,,0.00,0,Wunderground v.1.15,2013-04-14 06:40:00,
2013-04-13 23:45:00,47.3,45.1,29.91,SSW,193,4.0,4.0,92,0.00,,,0.00,0,Wunderground v.1.15,2013-04-14 06:45:00,
2013-04-13 23:50:00,47.3,45.1,29.91,SSW,206,0.0,0.0,92,0.00,,,0.00,0,Wunderground v.1.15,2013-04-14 06:50:00,
2013-04-13 23:59:00,47.3,45.1,29.91,South,177,0.0,0.0,92,0.00,,,0.00,0,Wunderground v.1.15,2013-04-14 06:59:00,